Estación Fecha y Hora Temperatura Temperatura Mínima Temperatura Máxima Humedad Presión Velocidad del Viento Dirección del Viento Precipitación
Bulilla 12/06/2024 18:35 16.1 12.9 19.9 84 1018.2 8.6 WNW 0.6
Ciudad 14/06/2024 10:20 23.6 13.9 23.6 64 1018.0 0 NE 0.2
Villa-Ventín 14/06/24 10:22 21.9 12.8 21.9 72 1014.1 0.0 125 0.2
Finca Hnos. Guerrero 14/06/24 10:20 19.9 13.3 19.9 82 1014.9 0.0 13 0.2
Finca Balaguer 14/06/2024 10:20 20.6 13.3 20.6 76 1020.3 2 SSE 0.0
Finca La Gloria 14/06/2024 10:20 20.9 14.6 20.9 67 1018.6 11.2 S 0.3
Hondo de Carboneras 14/06/2024 10:20 22.1 12.0 22.1 72 1018.4 3.60 NNW 0.0
Hondo de la Lagunilla 14/06/2024 10:23 23.1 13.2 23.1 91 1015.9 11.2 NE 0.0
La Boquera 14/06/2024 10:24 23.0 13.9 23.0 69 1019.0 4.0 E 0.0
La Encina 14/06/2024 10:22 22.2 14.6 22.2 68 1019.34 0.0 SW 0.0
La Lagunilla 14/06/2024 10:17 19.7 14.1 19.7 4 1014.8 0.0 - 0.2
La Parrala 14/06/2024 10:20 22.0 13.9 22.0 69 1019.20 0.0 SE 0.2
La Zafra 14/06/2024 10:20 22.4 13.9 22.4 59 1015.1 18.2 W 0.0
Las Quebradas 14/06/2024 10:23 22.9 13.4 22.9 66 1020.9 0.0 ESE 0.0
Las Virtudes 14/06/2024 10:23 0.0 0.0 0.0 0 0.0 0.0 - 0.0
Peña Rubia 14/06/2024 10:20 21.1 13.4 21.2 73 1021.1 3.5 E 0.0
Sierra Salinas 14/06/2024 10:20 21.4 14.1 21.4 45 1017.27 3.2 S 0.0
Sierra de La Villa 14/06/2024 10:20 21.8 15.6 21.8 62 1016.6 3.9 S 0.0
Colonia de Sierra Salinas 14/06/2024 10:24 21.5 11.1 21.9 65 1015.8 7.2 NNE 0.0
Cabrera - Casa Anvers 14/06/2024 10:20 23.7 15.2 23.8 64 1018.7 3.6 NNE 0.0